Lewis, NY (12950)

2:34 AM EST on December 22, 2014 (GMT -0500)
Little Crow | Change Station
CLOSE
Current Station
Personal Weather Station
Location: Keene, NY
Elevation: 1831 ft
Nearby Weather Stations

Elev 1831 ft 44.26 °N, 73.76 °W | Updated 1 second ago

Mostly Cloudy
Mostly Cloudy
7.0 °F
Feels Like 7 °F
N
1.4
Wind Variable Wind from NE
Gusts 1.6 mph

Today
High -- | Low -- °F
--% Chance of Precip.
Yesterday
High -- | Low -- °F
Precip. -- in
7:27 AM 4:18 PM
New Moon, 0% visible
Pressure 30.40 in
Visibility 5.0 miles
Clouds Overcast 800 ft
Windchill 7 °F
Dew Point -35 °F
Humidity 12%
Rainfall 0.00 in
Snow Depth Not available.
UV 0 out of 12
Pollen .10 out of 12
Air Quality Not available.
Flu Activity Not available.
METAR KPBG 220653Z AUTO 00000KT 5SM BR OVC008 M05/M07 A3039 RMK AO2 SLP294 T10501067

More Conditions Fewer Conditions

Pressure 30.40 in
Visibility 5.0 miles
Clouds Overcast 800 ft
Windchill 7 °F
Dew Point -35 °F
Humidity 12%
Rainfall 0.00 in
Snow Depth Not available.
UV 0 out of 12
Pollen .10 out of 12
Air Quality Not available.
Flu Activity Not available.
METAR KPBG 220653Z AUTO 00000KT 5SM BR OVC008 M05/M07 A3039 RMK AO2 SLP294 T10501067

More Conditions Fewer Conditions

10-Day Weather Forecast

Almanac

Astronomy

Dec. 22, 2014 Rise Set
Actual Time
Civil Twilight
Nautical Twilight
Astronomical Twilight
Moon
Length of Visible Light
Length of Day
Tomorrow will be .
, % of the Moon is Illuminated

Today's Extremes

State Highs State Lows

Community

WunderPhotos

Upload Photos

1,779,564 photos uploaded!

WunderBlogs® & News

Nearby

Air Quality

  Air Quality AQ Index Pollutant
Not available.

Snow Depth

Station Depth Elevation

Earthquake Activity

City Distance Mag. Time & Date
Minimum magnitude displayed is 2.5.

Coastal Water Temperatures

Place Temperature

Nearby Weather Stations